Time;durP1;ratioP1;P1;durP2;ratioP2;P2;SDS_P1;SDS_P2;PMS_P1;PMS_P2;Temp;Humidity;BMP_temperature;BMP_pressure;BME280_temperature;BME280_humidity;BME280_pressure;Samples;Min_cycle;Max_cycle;Signal;HPM_P1;HPM_P2
2022/10/24 00:01:41;;;;;;;6.45;2.55;;;13.90;99.90;;;;;;5142422;27;20507;-52
2022/10/24 00:04:07;;;;;;;6.32;2.75;;;13.90;99.90;;;;;;5161543;27;20438;-56
2022/10/24 00:06:32;;;;;;;6.50;2.70;;;13.80;99.90;;;;;;5141932;27;20364;-53
2022/10/24 00:08:58;;;;;;;7.07;3.38;;;13.90;99.90;;;;;;5160554;27;20046;-52
2022/10/24 00:11:27;;;;;;;6.97;2.80;;;14.00;99.90;;;;;;5159934;27;20050;-49
2022/10/24 00:13:55;;;;;;;9.63;2.90;;;14.10;99.90;;;;;;5160108;27;20507;-54
2022/10/24 00:16:21;;;;;;;6.78;2.67;;;14.20;99.90;;;;;;5159853;27;20691;-46
2022/10/24 00:18:47;;;;;;;10.77;2.92;;;14.20;99.90;;;;;;5160627;27;20046;-55
2022/10/24 00:21:13;;;;;;;7.97;3.20;;;14.20;99.90;;;;;;5140280;27;20138;-53
2022/10/24 00:23:39;;;;;;;8.00;3.10;;;14.20;99.90;;;;;;5151641;27;20049;-51
2022/10/24 00:26:06;;;;;;;8.98;3.53;;;14.20;99.90;;;;;;5141331;27;20512;-48
2022/10/24 00:28:34;;;;;;;8.82;3.08;;;14.20;99.90;;;;;;5160189;27;20415;-48
2022/10/24 00:31:00;;;;;;;10.05;2.75;;;14.30;99.90;;;;;;5159339;27;20057;-52
2022/10/24 00:33:26;;;;;;;6.63;2.28;;;14.40;99.90;;;;;;5141985;27;20110;-49
2022/10/24 00:35:52;;;;;;;7.95;3.13;;;14.40;99.90;;;;;;5159569;27;20095;-51
2022/10/24 00:38:17;;;;;;;12.05;2.78;;;14.40;99.90;;;;;;5123791;27;20468;-52
2022/10/24 00:40:43;;;;;;;15.13;3.40;;;14.40;99.90;;;;;;5158756;27;20046;-55
2022/10/24 00:43:14;;;;;;;5.80;2.28;;;14.40;99.90;;;;;;5159742;27;20053;-52
2022/10/24 00:45:56;;;;;;;7.72;2.63;;;14.30;99.90;;;;;;5139926;27;20399;-52
2022/10/24 00:48:30;;;;;;;6.13;2.28;;;14.30;99.90;;;;;;5159985;27;20787;-51
2022/10/24 00:51:00;;;;;;;6.82;2.75;;;14.20;99.90;;;;;;5141697;27;20058;-54
2022/10/24 00:53:28;;;;;;;10.38;2.67;;;14.20;99.90;;;;;;5160035;27;20144;-50
2022/10/24 00:55:56;;;;;;;6.55;2.60;;;14.30;99.90;;;;;;5140735;27;20107;-53
2022/10/24 00:58:25;;;;;;;9.15;2.72;;;14.20;99.90;;;;;;5157901;27;20420;-51
2022/10/24 01:00:50;;;;;;;7.70;3.00;;;14.30;99.90;;;;;;5147193;27;20575;-50
2022/10/24 01:03:17;;;;;;;6.53;2.40;;;14.20;99.90;;;;;;5159131;27;20038;-54
2022/10/24 01:06:09;;;;;;;10.02;2.92;;;14.30;99.90;;;;;;5158560;27;20050;-55
2022/10/24 01:08:41;;;;;;;9.35;2.85;;;14.30;99.90;;;;;;5158646;27;20046;-51
2022/10/24 01:11:33;;;;;;;9.10;3.00;;;14.30;99.90;;;;;;5158641;27;20050;-54
2022/10/24 01:14:08;;;;;;;7.05;2.60;;;14.40;99.90;;;;;;5131201;27;20500;-50
2022/10/24 01:16:45;;;;;;;7.90;3.08;;;14.40;99.90;;;;;;5158699;27;20108;-55
2022/10/24 01:19:11;;;;;;;10.90;3.30;;;14.50;99.90;;;;;;5139907;27;20050;-49
2022/10/24 01:21:44;;;;;;;8.80;2.85;;;14.40;99.90;;;;;;5158424;27;20498;-52
2022/10/24 01:24:31;;;;;;;6.20;3.00;;;14.40;99.90;;;;;;5158834;27;20046;-54
2022/10/24 01:27:18;;;;;;;6.28;2.90;;;14.50;99.90;;;;;;5159053;27;20114;-46
2022/10/24 01:30:00;;;;;;;7.78;2.90;;;14.50;99.90;;;;;;5152954;27;20399;-51
2022/10/24 01:33:04;;;;;;;9.30;2.95;;;14.50;99.90;;;;;;5151860;27;20057;-52
2022/10/24 01:35:39;;;;;;;10.60;4.05;;;14.60;99.90;;;;;;5150557;27;20096;-53
2022/10/24 01:38:20;;;;;;;7.05;2.85;;;14.60;99.90;;;;;;5146437;27;20058;-55
2022/10/24 01:41:00;;;;;;;8.90;3.13;;;14.60;99.90;;;;;;5155244;27;20488;-52
2022/10/24 01:43:31;;;;;;;8.00;2.97;;;14.60;99.90;;;;;;5150601;27;20050;-53
2022/10/24 01:46:05;;;;;;;8.38;2.92;;;14.60;99.90;;;;;;5157821;27;20690;-48
2022/10/24 01:48:38;;;;;;;6.13;2.88;;;14.60;99.90;;;;;;5139540;27;20057;-52
2022/10/24 01:51:06;;;;;;;7.28;3.42;;;14.60;99.90;;;;;;5145732;27;20392;-48
2022/10/24 01:53:34;;;;;;;7.93;3.10;;;14.60;99.90;;;;;;5158312;27;20056;-46
2022/10/24 01:56:00;;;;;;;8.23;3.70;;;14.50;99.90;;;;;;5157530;27;20121;-44
2022/10/24 01:58:26;;;;;;;9.55;3.28;;;14.50;99.90;;;;;;5158368;27;20054;-52
2022/10/24 02:00:56;;;;;;;9.23;3.90;;;14.60;99.90;;;;;;5149727;27;20035;-52
2022/10/24 02:03:49;;;;;;;6.32;3.92;;;14.60;99.90;;;;;;5139159;27;20133;-54
2022/10/24 02:06:37;;;;;;;9.85;3.75;;;14.50;99.90;;;;;;5156839;27;20496;-48
2022/10/24 02:09:09;;;;;;;7.65;3.17;;;14.60;99.90;;;;;;5157512;27;20337;-47
2022/10/24 02:11:37;;;;;;;9.68;3.60;;;14.60;99.90;;;;;;5154360;27;20134;-50
2022/10/24 02:14:31;;;;;;;10.57;3.50;;;14.60;99.90;;;;;;5148681;27;20053;-53
2022/10/24 02:16:58;;;;;;;6.75;3.47;;;14.60;99.90;;;;;;5137557;27;20554;-50
2022/10/24 02:19:24;;;;;;;7.40;3.20;;;14.60;99.90;;;;;;5151988;27;20064;-48
2022/10/24 02:22:07;;;;;;;11.95;4.13;;;14.60;99.90;;;;;;5158042;27;20531;-49
2022/10/24 02:24:41;;;;;;;6.15;3.85;;;14.60;99.90;;;;;;5157631;27;20104;-48
2022/10/24 02:27:33;;;;;;;8.20;4.03;;;14.60;99.90;;;;;;5146443;27;20415;-51
2022/10/24 02:30:07;;;;;;;7.45;3.58;;;14.50;99.90;;;;;;5144023;27;20050;-49
2022/10/24 02:32:39;;;;;;;9.48;3.63;;;14.50;99.90;;;;;;5143951;27;20110;-50
2022/10/24 02:35:07;;;;;;;12.60;3.72;;;14.50;99.90;;;;;;5157622;27;20054;-47
2022/10/24 02:37:38;;;;;;;10.23;3.50;;;14.50;99.90;;;;;;5153662;27;20102;-46
2022/10/24 02:40:07;;;;;;;8.75;3.70;;;14.40;99.90;;;;;;5148358;27;20089;-50
2022/10/24 02:42:34;;;;;;;10.95;3.95;;;14.40;99.90;;;;;;5157333;27;20416;-49
2022/10/24 02:45:01;;;;;;;11.05;3.55;;;14.40;99.90;;;;;;5156995;27;20038;-51
2022/10/24 02:47:28;;;;;;;14.02;3.70;;;14.50;99.90;;;;;;5143943;27;20042;-54
2022/10/24 02:49:54;;;;;;;10.38;3.47;;;14.40;99.90;;;;;;5157036;27;20129;-52
2022/10/24 02:52:22;;;;;;;11.68;3.47;;;14.50;99.90;;;;;;5157278;27;20050;-48
2022/10/24 02:54:48;;;;;;;11.02;4.03;;;14.40;99.90;;;;;;5143859;27;20053;-47
2022/10/24 02:57:14;;;;;;;12.40;3.67;;;14.50;99.90;;;;;;5150135;27;20047;-51
2022/10/24 02:59:40;;;;;;;10.73;4.65;;;14.50;99.90;;;;;;5150290;27;20549;-46
2022/10/24 03:02:06;;;;;;;9.05;3.55;;;14.40;99.90;;;;;;5137831;27;20085;-50
2022/10/24 03:04:32;;;;;;;9.98;3.33;;;14.40;99.90;;;;;;5120454;27;20058;-52
2022/10/24 03:06:57;;;;;;;10.10;3.67;;;14.30;99.90;;;;;;5157146;27;20049;-51
2022/10/24 03:09:23;;;;;;;11.07;3.20;;;14.30;99.90;;;;;;5156887;27;20042;-50
2022/10/24 03:11:49;;;;;;;7.20;3.42;;;14.30;99.90;;;;;;5156560;27;20403;-50
2022/10/24 03:14:14;;;;;;;5.90;2.72;;;14.30;99.90;;;;;;5156010;27;20136;-48
2022/10/24 03:16:40;;;;;;;9.57;3.03;;;14.30;99.90;;;;;;5157079;27;20042;-49
2022/10/24 03:19:06;;;;;;;9.77;3.10;;;14.30;99.90;;;;;;5157029;27;20398;-51
2022/10/24 03:21:32;;;;;;;9.02;2.92;;;14.30;99.90;;;;;;5156392;27;20057;-47
2022/10/24 03:23:57;;;;;;;10.43;3.53;;;14.40;99.90;;;;;;5157768;27;20058;-51
2022/10/24 03:26:23;;;;;;;10.00;3.63;;;14.30;99.90;;;;;;5156699;27;20077;-53
2022/10/24 03:28:48;;;;;;;6.35;2.92;;;14.30;99.90;;;;;;5156884;27;20054;-49
2022/10/24 03:31:14;;;;;;;8.90;3.20;;;14.30;99.90;;;;;;5137904;27;20480;-46
2022/10/24 03:33:40;;;;;;;9.00;2.85;;;14.40;99.90;;;;;;5157095;27;20058;-55
2022/10/24 03:36:06;;;;;;;11.00;3.35;;;14.40;99.90;;;;;;5156467;27;20058;-47
2022/10/24 03:38:31;;;;;;;13.68;3.33;;;14.40;99.90;;;;;;5157471;27;20359;-51
2022/10/24 03:40:57;;;;;;;7.03;2.58;;;14.40;99.90;;;;;;5156804;27;20035;-50
2022/10/24 03:43:23;;;;;;;9.25;3.22;;;14.40;99.90;;;;;;5156741;27;20211;-52
2022/10/24 03:45:49;;;;;;;5.80;2.80;;;14.40;99.90;;;;;;5106259;27;20519;-53
2022/10/24 03:48:15;;;;;;;10.63;3.67;;;14.30;99.90;;;;;;5145164;27;20055;-45
2022/10/24 03:50:40;;;;;;;9.82;3.53;;;14.20;99.90;;;;;;5136006;27;20061;-53
2022/10/24 03:53:06;;;;;;;10.60;3.15;;;14.20;99.90;;;;;;5157629;27;20046;-52
2022/10/24 03:55:32;;;;;;;7.97;2.88;;;14.10;99.90;;;;;;5159703;27;20488;-52
2022/10/24 03:57:58;;;;;;;12.13;3.38;;;14.10;99.90;;;;;;5149873;27;20046;-51
2022/10/24 04:00:26;;;;;;;7.75;3.67;;;14.10;99.90;;;;;;5158872;27;20089;-50
2022/10/24 04:02:52;;;;;;;6.00;2.80;;;14.00;99.90;;;;;;5161972;27;20050;-52
2022/10/24 04:05:18;;;;;;;11.43;2.72;;;14.00;99.90;;;;;;5160119;27;20114;-46
2022/10/24 04:07:43;;;;;;;7.28;3.35;;;13.90;99.90;;;;;;5142098;27;20414;-52
2022/10/24 04:10:09;;;;;;;13.73;3.50;;;13.90;99.90;;;;;;5159892;27;20125;-55
2022/10/24 04:12:36;;;;;;;8.25;3.38;;;13.80;99.90;;;;;;5160736;27;20065;-48
2022/10/24 04:15:02;;;;;;;11.32;2.83;;;13.80;99.90;;;;;;5141158;27;20415;-49
2022/10/24 04:17:28;;;;;;;10.50;3.30;;;13.70;99.90;;;;;;5160612;27;20050;-48
2022/10/24 04:19:54;;;;;;;5.72;2.85;;;13.70;99.90;;;;;;5159638;27;20041;-52
2022/10/24 04:22:20;;;;;;;6.93;3.10;;;13.70;99.90;;;;;;5160363;27;20129;-51
2022/10/24 04:24:45;;;;;;;8.10;3.15;;;13.70;99.90;;;;;;5159584;27;20181;-48
2022/10/24 04:27:11;;;;;;;10.68;3.28;;;13.80;99.90;;;;;;5160248;27;20082;-49
2022/10/24 04:29:36;;;;;;;13.68;3.47;;;13.80;99.90;;;;;;5159656;27;20375;-55
2022/10/24 04:32:02;;;;;;;9.35;2.70;;;13.80;99.90;;;;;;5141183;27;20034;-50
2022/10/24 04:34:28;;;;;;;14.20;3.20;;;13.80;99.90;;;;;;5159112;27;20570;-48
2022/10/24 04:36:54;;;;;;;8.50;2.83;;;13.90;99.90;;;;;;5160046;27;20050;-52
2022/10/24 04:39:19;;;;;;;15.50;3.10;;;13.90;99.90;;;;;;5140256;27;20054;-54
2022/10/24 04:41:46;;;;;;;8.82;3.10;;;13.90;99.90;;;;;;5159706;27;20050;-47
2022/10/24 04:44:12;;;;;;;10.77;2.90;;;13.90;99.90;;;;;;5160045;27;20698;-46
2022/10/24 04:46:37;;;;;;;10.63;2.53;;;14.00;99.90;;;;;;5129499;27;20043;-55
2022/10/24 04:49:03;;;;;;;5.50;2.22;;;13.90;99.90;;;;;;5152785;27;20050;-54
2022/10/24 04:51:29;;;;;;;7.85;2.85;;;14.00;99.90;;;;;;5133109;27;20058;-48
2022/10/24 04:53:55;;;;;;;4.32;2.40;;;14.00;99.90;;;;;;5158999;27;20067;-46
2022/10/24 04:56:21;;;;;;;9.25;2.45;;;13.90;99.90;;;;;;5159692;27;20987;-51
2022/10/24 04:58:47;;;;;;;5.95;2.33;;;14.00;99.90;;;;;;5145275;27;20050;-53
2022/10/24 05:01:13;;;;;;;8.75;2.33;;;13.90;99.90;;;;;;5145557;27;20046;-56
2022/10/24 05:03:39;;;;;;;9.18;2.90;;;13.90;99.90;;;;;;5159096;27;20050;-47
2022/10/24 05:06:05;;;;;;;7.65;2.92;;;14.00;99.90;;;;;;5109950;27;20163;-46
2022/10/24 05:08:30;;;;;;;10.88;3.08;;;14.00;99.90;;;;;;5158575;27;20113;-50
2022/10/24 05:10:56;;;;;;;6.38;2.47;;;14.10;99.90;;;;;;5140697;27;20459;-52
2022/10/24 05:13:22;;;;;;;7.70;2.70;;;14.00;99.90;;;;;;5152393;27;20047;-45
2022/10/24 05:15:47;;;;;;;9.70;2.78;;;14.10;99.90;;;;;;5151726;27;20137;-50
2022/10/24 05:18:13;;;;;;;6.53;2.22;;;14.10;99.90;;;;;;5145255;27;20038;-54
2022/10/24 05:20:39;;;;;;;13.48;3.53;;;14.10;99.90;;;;;;5158460;27;20042;-50
2022/10/24 05:23:04;;;;;;;7.90;2.13;;;14.20;99.90;;;;;;5159845;27;20046;-46
2022/10/24 05:25:30;;;;;;;7.90;2.60;;;14.20;99.90;;;;;;5159112;27;20129;-45
2022/10/24 05:27:55;;;;;;;8.13;2.53;;;14.20;99.90;;;;;;5159444;27;20544;-51
2022/10/24 05:30:21;;;;;;;10.82;2.25;;;14.20;99.90;;;;;;5158732;27;20421;-51
2022/10/24 05:32:47;;;;;;;10.05;2.45;;;14.20;99.90;;;;;;5154628;27;20047;-51
2022/10/24 05:35:13;;;;;;;8.02;2.40;;;14.20;99.90;;;;;;5148546;27;20097;-56
2022/10/24 05:37:38;;;;;;;6.95;2.40;;;14.20;99.90;;;;;;5157128;27;20114;-52
2022/10/24 05:40:08;;;;;;;7.97;2.40;;;14.30;99.90;;;;;;5157223;27;20118;-52
2022/10/24 05:42:35;;;;;;;6.75;1.65;;;14.30;99.90;;;;;;5150798;27;20058;-52
2022/10/24 05:45:01;;;;;;;9.18;2.72;;;14.30;99.90;;;;;;5158647;27;20500;-53
2022/10/24 05:47:26;;;;;;;7.22;2.17;;;14.30;99.90;;;;;;5144715;27;20049;-53
2022/10/24 05:49:52;;;;;;;7.90;1.92;;;14.30;99.90;;;;;;5146543;27;20042;-47
2022/10/24 05:52:17;;;;;;;7.13;2.65;;;14.30;99.90;;;;;;5157141;27;20046;-48
2022/10/24 05:54:43;;;;;;;8.57;2.25;;;14.30;99.90;;;;;;5158211;27;20392;-55
2022/10/24 05:57:09;;;;;;;8.43;2.08;;;14.20;99.90;;;;;;5158446;27;20125;-50
2022/10/24 05:59:34;;;;;;;6.90;2.38;;;14.20;99.90;;;;;;5157746;27;20467;-48
2022/10/24 06:02:00;;;;;;;7.00;1.95;;;14.20;99.90;;;;;;5158735;27;20050;-47
2022/10/24 06:04:25;;;;;;;9.85;1.95;;;14.20;99.90;;;;;;5157941;27;20046;-45
2022/10/24 06:06:51;;;;;;;9.00;2.05;;;14.20;99.90;;;;;;5122743;27;20046;-51
2022/10/24 06:09:17;;;;;;;7.65;2.00;;;14.20;99.90;;;;;;5157201;27;20090;-52
2022/10/24 06:11:42;;;;;;;12.20;2.65;;;14.20;99.90;;;;;;5153697;27;20369;-44
2022/10/24 06:14:08;;;;;;;9.60;2.10;;;14.10;99.90;;;;;;5129405;27;20552;-50
2022/10/24 06:16:34;;;;;;;9.77;2.17;;;14.20;99.90;;;;;;5157624;27;20151;-52
2022/10/24 06:19:00;;;;;;;8.30;1.55;;;14.20;99.90;;;;;;5138763;27;20030;-50
2022/10/24 06:21:26;;;;;;;12.38;2.10;;;14.30;99.90;;;;;;5153095;27;20053;-47
2022/10/24 06:23:52;;;;;;;10.48;2.35;;;14.30;99.90;;;;;;5146915;27;20038;-50
2022/10/24 06:26:18;;;;;;;9.55;1.98;;;14.30;99.90;;;;;;5157487;27;20455;-50
2022/10/24 06:28:44;;;;;;;10.73;2.10;;;14.40;99.90;;;;;;5146110;27;20050;-54
2022/10/24 06:31:11;;;;;;;9.38;1.80;;;14.40;99.90;;;;;;5130631;27;20500;-54
2022/10/24 06:33:37;;;;;;;8.73;1.70;;;14.50;99.90;;;;;;5148726;27;20052;-56
2022/10/24 06:36:05;;;;;;;7.43;1.83;;;14.50;99.90;;;;;;5152832;27;20050;-53
2022/10/24 06:38:32;;;;;;;5.13;1.77;;;14.60;99.90;;;;;;5148652;27;20042;-54
2022/10/24 06:40:57;;;;;;;5.65;2.00;;;14.60;99.90;;;;;;5157168;27;20181;-48
2022/10/24 06:43:23;;;;;;;10.30;1.73;;;14.50;99.90;;;;;;5139348;27;20483;-51
2022/10/24 06:45:49;;;;;;;11.32;2.47;;;14.60;99.90;;;;;;5151775;27;20043;-52
2022/10/24 06:48:15;;;;;;;7.70;2.25;;;14.60;99.90;;;;;;5131097;27;20050;-52
2022/10/24 06:50:41;;;;;;;7.03;1.80;;;14.60;99.90;;;;;;5157128;27;20050;-52
2022/10/24 06:53:08;;;;;;;5.43;1.77;;;14.60;99.90;;;;;;5157283;27;20686;-53
2022/10/24 06:55:36;;;;;;;5.13;1.63;;;14.60;99.90;;;;;;5157868;27;20539;-44
2022/10/24 06:58:02;;;;;;;7.25;1.70;;;14.60;99.90;;;;;;5158603;27;20086;-44
2022/10/24 07:00:28;;;;;;;6.68;1.88;;;14.70;99.90;;;;;;5156760;27;20171;-53
2022/10/24 07:02:53;;;;;;;7.60;2.08;;;14.70;99.90;;;;;;5128977;27;20035;-48
2022/10/24 07:05:19;;;;;;;6.53;1.90;;;14.70;99.90;;;;;;5156057;27;20082;-53
2022/10/24 07:07:45;;;;;;;9.30;2.28;;;14.80;99.90;;;;;;5138596;27;20522;-50
2022/10/24 07:10:14;;;;;;;9.25;2.53;;;14.80;99.90;;;;;;5153304;27;20045;-45
2022/10/24 07:12:40;;;;;;;6.80;2.15;;;14.90;99.90;;;;;;5156136;27;20486;-48
2022/10/24 07:15:06;;;;;;;9.60;2.40;;;14.90;99.90;;;;;;5141905;27;20051;-46
2022/10/24 07:17:41;;;;;;;10.90;1.85;;;14.90;99.90;;;;;;5117929;27;20046;-53
2022/10/24 07:20:08;;;;;;;9.32;2.10;;;14.90;99.90;;;;;;5133980;27;20081;-55
2022/10/24 07:22:34;;;;;;;8.30;1.92;;;14.90;99.90;;;;;;5135349;27;20579;-48
2022/10/24 07:25:01;;;;;;;8.55;1.90;;;15.00;99.90;;;;;;5136348;27;20047;-51
2022/10/24 07:27:26;;;;;;;8.77;1.73;;;14.90;99.90;;;;;;5134340;27;20573;-55
2022/10/24 07:29:52;;;;;;;10.00;2.33;;;15.00;99.90;;;;;;5150958;27;20039;-52
2022/10/24 07:32:19;;;;;;;11.82;2.22;;;15.00;99.90;;;;;;5152920;27;20113;-52
2022/10/24 07:34:46;;;;;;;11.77;2.45;;;15.10;99.90;;;;;;5158264;27;20429;-46
2022/10/24 07:37:13;;;;;;;9.98;2.08;;;15.10;99.90;;;;;;5140917;27;20551;-50
2022/10/24 07:39:39;;;;;;;6.85;2.17;;;15.10;99.90;;;;;;5148543;27;20068;-48
2022/10/24 07:42:04;;;;;;;8.15;2.22;;;15.10;99.90;;;;;;5158887;27;20428;-46
2022/10/24 07:44:30;;;;;;;9.45;2.47;;;15.10;99.90;;;;;;5159873;27;20042;-45
2022/10/24 07:46:56;;;;;;;6.43;1.83;;;15.20;99.90;;;;;;5146491;27;20038;-54
2022/10/24 07:49:22;;;;;;;6.43;1.92;;;15.20;99.90;;;;;;5159938;27;20061;-49
2022/10/24 07:51:47;;;;;;;6.78;1.42;;;15.20;99.90;;;;;;5160189;27;20042;-53
2022/10/24 07:54:13;;;;;;;10.50;2.70;;;15.30;99.90;;;;;;5158344;27;20106;-55
2022/10/24 07:56:39;;;;;;;9.48;2.88;;;15.30;99.90;;;;;;5141082;27;20555;-44
2022/10/24 07:59:04;;;;;;;12.25;2.88;;;15.30;99.90;;;;;;5149136;27;20093;-52
2022/10/24 08:01:30;;;;;;;12.02;2.35;;;15.30;99.90;;;;;;5145863;27;20046;-48
2022/10/24 08:03:56;;;;;;;13.90;2.40;;;15.30;99.90;;;;;;5148890;27;20574;-49
2022/10/24 08:06:27;;;;;;;10.63;2.03;;;15.20;99.90;;;;;;5154783;27;20141;-46
2022/10/24 08:08:52;;;;;;;7.72;1.85;;;15.10;99.90;;;;;;5140573;27;20046;-45
2022/10/24 08:11:24;;;;;;;7.70;1.85;;;15.10;99.90;;;;;;5158921;27;20042;-50
2022/10/24 08:13:50;;;;;;;13.75;2.22;;;15.10;99.90;;;;;;5139450;27;20074;-51
2022/10/24 08:16:19;;;;;;;5.30;1.92;;;15.10;99.90;;;;;;5145953;27;20049;-48
2022/10/24 08:18:46;;;;;;;11.10;2.25;;;15.00;99.90;;;;;;5136759;27;20054;-47
2022/10/24 08:21:14;;;;;;;9.05;2.15;;;15.10;99.90;;;;;;5143052;27;20448;-52
2022/10/24 08:23:42;;;;;;;8.23;2.10;;;15.10;99.90;;;;;;5151415;27;20049;-53
2022/10/24 08:26:11;;;;;;;10.50;2.03;;;15.10;99.90;;;;;;5133628;27;20107;-49
2022/10/24 08:28:37;;;;;;;7.93;2.45;;;15.10;99.90;;;;;;5146173;27;20141;-55
2022/10/24 08:31:05;;;;;;;8.32;1.90;;;15.00;99.90;;;;;;5135092;27;20386;-47
2022/10/24 08:33:31;;;;;;;11.20;2.08;;;15.00;99.90;;;;;;5148402;27;20057;-52
2022/10/24 08:36:00;;;;;;;11.68;1.90;;;15.00;99.90;;;;;;5158144;27;20046;-47
2022/10/24 08:38:26;;;;;;;9.60;2.00;;;15.00;99.90;;;;;;5137765;27;20054;-46
2022/10/24 08:40:52;;;;;;;7.20;1.70;;;15.00;99.90;;;;;;5153648;27;20045;-49
2022/10/24 08:43:18;;;;;;;6.88;2.10;;;15.00;99.90;;;;;;5155166;27;20042;-48
2022/10/24 08:46:16;;;;;;;10.93;2.10;;;14.90;99.90;;;;;;5148400;27;20813;-47
2022/10/24 08:49:21;;;;;;;9.57;2.30;;;14.90;99.90;;;;;;5139222;27;20048;-47
2022/10/24 08:51:53;;;;;;;8.50;1.85;;;14.80;99.90;;;;;;5146094;27;20138;-49
2022/10/24 08:54:24;;;;;;;8.27;2.03;;;14.80;99.90;;;;;;5149871;27;20050;-45
2022/10/24 08:56:53;;;;;;;8.85;2.20;;;14.80;99.90;;;;;;5156465;27;20038;-47
2022/10/24 08:59:19;;;;;;;11.60;2.50;;;15.00;99.90;;;;;;5152674;27;20065;-45
2022/10/24 09:02:23;;;;;;;10.43;1.75;;;15.00;99.90;;;;;;5158417;27;20726;-52
2022/10/24 09:05:01;;;;;;;14.27;2.15;;;15.00;99.90;;;;;;5037774;28;20052;-52
2022/10/24 09:07:28;;;;;;;8.43;3.00;;;15.00;99.90;;;;;;5036892;28;20096;-54
2022/10/24 09:10:06;;;;;;;10.77;2.00;;;15.00;99.90;;;;;;5033573;28;20144;-48
2022/10/24 09:12:34;;;;;;;7.15;1.75;;;15.00;99.90;;;;;;5017344;28;20057;-51
2022/10/24 09:15:00;;;;;;;6.88;1.60;;;15.00;99.90;;;;;;5032806;28;20612;-52
2022/10/24 09:17:34;;;;;;;11.38;2.30;;;15.10;99.90;;;;;;5016638;28;20135;-48
2022/10/24 09:20:20;;;;;;;8.25;2.50;;;15.10;99.90;;;;;;5051609;28;20056;-47
2022/10/24 09:22:46;;;;;;;10.93;3.03;;;15.20;99.90;;;;;;5052930;28;20064;-53
2022/10/24 09:25:28;;;;;;;10.60;3.83;;;15.20;99.90;;;;;;5053101;28;20375;-48
2022/10/24 09:27:54;;;;;;;8.10;3.65;;;15.30;99.90;;;;;;5019400;28;20057;-49
2022/10/24 09:30:26;;;;;;;6.72;1.73;;;15.30;99.90;;;;;;5042579;28;20097;-44
2022/10/24 09:32:56;;;;;;;7.13;2.30;;;15.40;99.90;;;;;;5053114;28;20117;-53
2022/10/24 09:35:25;;;;;;;9.98;2.47;;;15.50;99.90;;;;;;5080909;27;20473;-54
2022/10/24 09:38:18;;;;;;;9.40;2.10;;;15.60;99.90;;;;;;5157532;27;20085;-50
2022/10/24 09:40:50;;;;;;;13.02;2.45;;;15.70;99.90;;;;;;5154146;27;20057;-53
2022/10/24 09:43:42;;;;;;;8.45;2.25;;;15.70;99.90;;;;;;5149063;27;20046;-53
2022/10/24 09:46:25;;;;;;;8.98;2.05;;;15.70;99.90;;;;;;5140587;27;20046;-51
2022/10/24 09:48:56;;;;;;;8.77;2.47;;;15.70;99.90;;;;;;5158408;27;20054;-53
2022/10/24 09:51:31;;;;;;;7.65;2.08;;;15.70;99.90;;;;;;5139516;27;20098;-53
2022/10/24 09:54:24;;;;;;;11.43;1.95;;;15.70;99.90;;;;;;5157805;27;20524;-55
2022/10/24 09:57:03;;;;;;;9.35;1.98;;;15.70;99.90;;;;;;5158531;27;20121;-50
2022/10/24 09:59:34;;;;;;;10.15;2.17;;;15.70;99.90;;;;;;5157546;27;20054;-49
2022/10/24 10:02:21;;;;;;;7.43;1.83;;;15.70;99.90;;;;;;5139531;27;20121;-52
2022/10/24 10:05:08;;;;;;;12.63;2.28;;;15.70;99.90;;;;;;5156372;27;20531;-56
2022/10/24 10:07:39;;;;;;;11.90;2.28;;;15.70;99.90;;;;;;5158696;27;20061;-52
2022/10/24 10:10:17;;;;;;;9.57;2.10;;;15.80;99.90;;;;;;5153830;27;20042;-48
2022/10/24 10:12:45;;;;;;;12.85;2.20;;;15.80;99.90;;;;;;5151252;27;20456;-56
2022/10/24 10:15:26;;;;;;;9.30;2.30;;;15.70;99.90;;;;;;5157109;27;20149;-55
2022/10/24 10:17:55;;;;;;;11.60;2.28;;;15.50;99.90;;;;;;5156796;27;20065;-48
2022/10/24 10:20:41;;;;;;;9.50;2.58;;;15.30;99.90;;;;;;5138815;27;20514;-48
2022/10/24 10:23:24;;;;;;;9.82;2.65;;;15.30;99.90;;;;;;5108269;27;20106;-55
2022/10/24 10:26:05;;;;;;;8.50;2.10;;;15.50;99.90;;;;;;5157827;27;20411;-49
2022/10/24 10:28:35;;;;;;;10.45;2.58;;;15.60;99.90;;;;;;5156510;27;20474;-55
2022/10/24 10:31:01;;;;;;;10.07;2.17;;;15.70;99.90;;;;;;5137931;27;21057;-50
2022/10/24 10:33:44;;;;;;;8.55;1.92;;;15.60;99.90;;;;;;5134886;27;20078;-55
2022/10/24 10:36:21;;;;;;;10.73;2.03;;;15.50;99.90;;;;;;5153951;27;20117;-50
2022/10/24 10:39:05;;;;;;;13.25;2.90;;;15.50;99.90;;;;;;5154237;27;20046;-54
2022/10/24 10:41:39;;;;;;;12.05;2.78;;;15.60;99.90;;;;;;5135758;27;20038;-48
2022/10/24 10:44:11;;;;;;;13.82;2.60;;;15.60;99.90;;;;;;5131768;27;20484;-46
2022/10/24 10:46:42;;;;;;;7.40;2.15;;;15.60;99.90;;;;;;5133963;27;20297;-57
2022/10/24 10:49:30;;;;;;;8.60;1.80;;;15.50;99.90;;;;;;5135916;27;20051;-51
2022/10/24 10:51:57;;;;;;;12.75;3.22;;;15.40;99.90;;;;;;5138578;27;20137;-53
2022/10/24 10:54:38;;;;;;;11.80;2.78;;;15.40;99.90;;;;;;5143637;27;20567;-49
2022/10/24 10:57:13;;;;;;;11.45;3.35;;;15.50;99.90;;;;;;5137762;27;20138;-52
2022/10/24 11:00:18;;;;;;;8.35;2.10;;;15.70;99.90;;;;;;5134250;27;20477;-51
2022/10/24 11:03:06;;;;;;;12.10;2.72;;;15.70;99.90;;;;;;5145773;27;20069;-50
2022/10/24 11:05:47;;;;;;;10.40;2.88;;;15.70;99.90;;;;;;5134642;27;20039;-53
2022/10/24 11:08:21;;;;;;;12.95;2.53;;;15.80;99.90;;;;;;5140859;27;20413;-54
2022/10/24 11:10:52;;;;;;;11.55;2.22;;;15.80;99.90;;;;;;5115743;27;20069;-55
2022/10/24 11:13:35;;;;;;;10.23;2.22;;;15.80;99.90;;;;;;5136603;27;20042;-50
2022/10/24 11:16:06;;;;;;;9.05;2.25;;;15.90;99.90;;;;;;5137334;27;20408;-54
2022/10/24 11:18:40;;;;;;;9.23;2.90;;;15.90;99.90;;;;;;5138075;27;20213;-53
2022/10/24 11:21:09;;;;;;;10.82;3.42;;;16.00;99.90;;;;;;5128436;27;20062;-51
2022/10/24 11:23:39;;;;;;;7.03;1.85;;;16.10;99.90;;;;;;5142328;27;20034;-53
2022/10/24 11:26:14;;;;;;;6.05;1.75;;;16.10;99.90;;;;;;5142953;27;20078;-48
2022/10/24 11:29:05;;;;;;;7.95;1.75;;;16.20;99.90;;;;;;5133450;27;20130;-53
2022/10/24 11:31:37;;;;;;;10.82;2.67;;;16.20;99.90;;;;;;5150579;27;20054;-52
2022/10/24 11:34:09;;;;;;;7.97;1.80;;;16.30;99.90;;;;;;5100282;27;20062;-55
2022/10/24 11:36:59;;;;;;;8.68;2.45;;;16.40;99.90;;;;;;5115858;27;20319;-52
2022/10/24 11:39:30;;;;;;;9.60;1.60;;;16.40;99.90;;;;;;5131778;27;20052;-55
2022/10/24 11:42:11;;;;;;;9.90;2.30;;;16.40;99.90;;;;;;5153045;27;20134;-51
2022/10/24 11:45:07;;;;;;;8.25;2.65;;;16.50;99.90;;;;;;5132874;27;20043;-55
2022/10/24 11:47:39;;;;;;;5.65;1.95;;;16.50;99.90;;;;;;5152207;27;20042;-52
2022/10/24 11:50:29;;;;;;;8.15;1.90;;;16.50;99.90;;;;;;5141306;27;20057;-50
2022/10/24 11:53:01;;;;;;;8.13;2.10;;;16.50;99.90;;;;;;5142580;27;20091;-51
2022/10/24 11:55:36;;;;;;;14.05;3.42;;;16.40;99.90;;;;;;5135441;27;20039;-52
2022/10/24 11:58:04;;;;;;;12.93;3.50;;;16.30;99.90;;;;;;5135638;27;20526;-51
2022/10/24 12:00:45;;;;;;;8.45;1.95;;;16.20;99.90;;;;;;5136561;27;20078;-49
2022/10/24 12:03:27;;;;;;;9.00;2.25;;;16.30;99.90;;;;;;5116055;27;20512;-47
2022/10/24 12:06:09;;;;;;;12.70;3.10;;;16.30;99.90;;;;;;5114003;27;20463;-55
2022/10/24 12:09:04;;;;;;;12.73;3.30;;;16.50;99.90;;;;;;5142907;27;20303;-53
2022/10/24 12:12:00;;;;;;;16.85;4.45;;;16.70;99.90;;;;;;5123065;27;20117;-54
2022/10/24 12:14:48;;;;;;;16.17;4.53;;;16.70;99.90;;;;;;5134625;27;20050;-51
2022/10/24 12:17:24;;;;;;;9.98;3.00;;;16.50;99.90;;;;;;5137453;27;20121;-53
2022/10/24 12:19:50;;;;;;;6.68;1.77;;;16.30;99.90;;;;;;5147034;27;20493;-54
2022/10/24 12:22:22;;;;;;;10.23;2.20;;;16.10;99.90;;;;;;5143025;27;20042;-52
2022/10/24 12:25:00;;;;;;;8.93;2.30;;;15.90;99.90;;;;;;5153487;27;20042;-51
2022/10/24 12:27:37;;;;;;;7.82;1.63;;;15.60;99.90;;;;;;5137394;27;20412;-46
2022/10/24 12:30:23;;;;;;;8.70;1.98;;;15.50;99.90;;;;;;5129782;27;20371;-53
2022/10/24 12:32:54;;;;;;;7.85;1.77;;;15.50;99.90;;;;;;5123398;27;20213;-52
2022/10/24 12:35:26;;;;;;;10.57;2.63;;;15.60;99.90;;;;;;5136670;27;20042;-49
2022/10/24 12:37:53;;;;;;;7.28;2.08;;;15.50;99.90;;;;;;5123719;27;20109;-48
2022/10/24 12:40:47;;;;;;;7.68;2.17;;;15.70;99.90;;;;;;5144109;27;20039;-49
2022/10/24 12:43:15;;;;;;;8.82;2.20;;;15.80;99.90;;;;;;5116609;27;20047;-57
2022/10/24 12:45:41;;;;;;;7.50;2.25;;;15.80;99.90;;;;;;5139615;27;20795;-52
2022/10/24 12:48:48;;;;;;;12.20;2.03;;;15.90;99.90;;;;;;5146979;27;20039;-54
2022/10/24 12:51:29;;;;;;;9.90;2.80;;;16.10;99.90;;;;;;5153951;27;20077;-48
2022/10/24 12:54:09;;;;;;;8.80;2.10;;;16.10;99.90;;;;;;5136552;27;20125;-55
2022/10/24 12:56:48;;;;;;;10.02;1.70;;;16.00;99.90;;;;;;5138131;27;20074;-49
2022/10/24 12:59:31;;;;;;;6.68;1.70;;;15.90;99.90;;;;;;5135217;27;20066;-50
2022/10/24 13:02:14;;;;;;;6.55;2.38;;;15.70;99.90;;;;;;5137532;27;20049;-52
2022/10/24 13:04:55;;;;;;;7.90;1.98;;;15.60;99.90;;;;;;5148329;27;20495;-46